sensor_id;sensor_type;location;lat;lon;timestamp;temperature;humidity
56428;DHT22;42331;53.578;9.760;2023-07-16T00:00:26;18.00;99.90
56428;DHT22;42331;53.578;9.760;2023-07-16T00:02:57;17.90;99.90
56428;DHT22;42331;53.578;9.760;2023-07-16T00:05:27;17.80;99.90
56428;DHT22;42331;53.578;9.760;2023-07-16T00:07:58;17.80;99.90
56428;DHT22;42331;53.578;9.760;2023-07-16T00:10:29;17.80;99.90
56428;DHT22;42331;53.578;9.760;2023-07-16T00:13:00;17.80;99.90
56428;DHT22;42331;53.578;9.760;2023-07-16T00:15:31;17.80;99.90
56428;DHT22;42331;53.578;9.760;2023-07-16T00:18:02;17.80;99.90
56428;DHT22;42331;53.578;9.760;2023-07-16T00:20:33;17.80;99.90
56428;DHT22;42331;53.578;9.760;2023-07-16T00:23:04;17.80;99.90
56428;DHT22;42331;53.578;9.760;2023-07-16T00:25:35;17.80;99.90
56428;DHT22;42331;53.578;9.760;2023-07-16T00:28:06;17.80;99.90
56428;DHT22;42331;53.578;9.760;2023-07-16T00:30:37;17.80;99.90
56428;DHT22;42331;53.578;9.760;2023-07-16T00:33:08;17.80;99.90
56428;DHT22;42331;53.578;9.760;2023-07-16T00:35:38;17.80;99.90
56428;DHT22;42331;53.578;9.760;2023-07-16T00:38:09;17.80;99.90
56428;DHT22;42331;53.578;9.760;2023-07-16T00:40:41;17.80;99.90
56428;DHT22;42331;53.578;9.760;2023-07-16T00:43:12;17.80;99.90
56428;DHT22;42331;53.578;9.760;2023-07-16T00:45:45;17.80;99.90
56428;DHT22;42331;53.578;9.760;2023-07-16T00:48:17;17.80;99.90
56428;DHT22;42331;53.578;9.760;2023-07-16T00:50:52;17.80;99.90
56428;DHT22;42331;53.578;9.760;2023-07-16T00:53:24;17.80;99.90
56428;DHT22;42331;53.578;9.760;2023-07-16T00:55:55;17.80;99.90
56428;DHT22;42331;53.578;9.760;2023-07-16T00:58:26;17.80;99.90
56428;DHT22;42331;53.578;9.760;2023-07-16T01:00:57;17.80;99.90
56428;DHT22;42331;53.578;9.760;2023-07-16T01:03:28;17.80;99.90
56428;DHT22;42331;53.578;9.760;2023-07-16T01:06:22;17.80;99.90
56428;DHT22;42331;53.578;9.760;2023-07-16T01:09:17;17.80;99.90
56428;DHT22;42331;53.578;9.760;2023-07-16T01:11:48;17.80;99.90
56428;DHT22;42331;53.578;9.760;2023-07-16T01:14:21;17.80;99.90
56428;DHT22;42331;53.578;9.760;2023-07-16T01:16:52;17.80;99.90
56428;DHT22;42331;53.578;9.760;2023-07-16T01:19:29;17.80;99.90
56428;DHT22;42331;53.578;9.760;2023-07-16T01:30:31;17.90;99.90
56428;DHT22;42331;53.578;9.760;2023-07-16T01:33:04;17.80;99.90
56428;DHT22;42331;53.578;9.760;2023-07-16T01:35:35;17.90;99.90
56428;DHT22;42331;53.578;9.760;2023-07-16T01:38:08;17.80;99.90
56428;DHT22;42331;53.578;9.760;2023-07-16T01:40:39;17.80;99.90
56428;DHT22;42331;53.578;9.760;2023-07-16T01:43:10;17.80;99.90
56428;DHT22;42331;53.578;9.760;2023-07-16T01:45:41;17.80;99.90
56428;DHT22;42331;53.578;9.760;2023-07-16T01:51:15;17.70;99.90
56428;DHT22;42331;53.578;9.760;2023-07-16T01:53:46;17.70;99.90
56428;DHT22;42331;53.578;9.760;2023-07-16T01:56:17;17.80;99.90
56428;DHT22;42331;53.578;9.760;2023-07-16T01:58:48;17.80;99.90
56428;DHT22;42331;53.578;9.760;2023-07-16T02:01:19;17.80;99.90
56428;DHT22;42331;53.578;9.760;2023-07-16T02:03:50;17.70;99.90
56428;DHT22;42331;53.578;9.760;2023-07-16T02:06:20;17.70;99.90
56428;DHT22;42331;53.578;9.760;2023-07-16T02:08:51;17.70;99.90
56428;DHT22;42331;53.578;9.760;2023-07-16T02:11:22;17.70;99.90
56428;DHT22;42331;53.578;9.760;2023-07-16T02:13:53;17.70;99.90
56428;DHT22;42331;53.578;9.760;2023-07-16T02:16:23;17.70;99.90
56428;DHT22;42331;53.578;9.760;2023-07-16T02:18:54;17.60;99.90
56428;DHT22;42331;53.578;9.760;2023-07-16T02:21:25;17.60;99.90
56428;DHT22;42331;53.578;9.760;2023-07-16T02:23:55;17.60;99.90
56428;DHT22;42331;53.578;9.760;2023-07-16T02:26:26;17.60;99.90
56428;DHT22;42331;53.578;9.760;2023-07-16T02:28:57;17.60;99.90
56428;DHT22;42331;53.578;9.760;2023-07-16T02:31:29;17.50;99.90
56428;DHT22;42331;53.578;9.760;2023-07-16T02:34:00;17.60;99.90
56428;DHT22;42331;53.578;9.760;2023-07-16T02:36:31;17.60;99.90
56428;DHT22;42331;53.578;9.760;2023-07-16T02:39:01;17.60;99.90
56428;DHT22;42331;53.578;9.760;2023-07-16T02:41:32;17.50;99.90
56428;DHT22;42331;53.578;9.760;2023-07-16T02:44:05;17.50;99.90
56428;DHT22;42331;53.578;9.760;2023-07-16T02:46:36;17.60;99.90
56428;DHT22;42331;53.578;9.760;2023-07-16T02:49:06;17.60;99.90
56428;DHT22;42331;53.578;9.760;2023-07-16T02:51:37;17.60;99.90
56428;DHT22;42331;53.578;9.760;2023-07-16T02:54:08;17.60;99.90
56428;DHT22;42331;53.578;9.760;2023-07-16T02:56:39;17.60;99.90
56428;DHT22;42331;53.578;9.760;2023-07-16T02:59:09;17.70;99.90
56428;DHT22;42331;53.578;9.760;2023-07-16T03:01:40;17.60;99.90
56428;DHT22;42331;53.578;9.760;2023-07-16T03:04:11;17.60;99.90
56428;DHT22;42331;53.578;9.760;2023-07-16T03:06:41;17.60;99.90
56428;DHT22;42331;53.578;9.760;2023-07-16T03:09:12;17.60;99.90
56428;DHT22;42331;53.578;9.760;2023-07-16T03:11:43;17.60;99.90
56428;DHT22;42331;53.578;9.760;2023-07-16T03:14:14;17.60;99.90
56428;DHT22;42331;53.578;9.760;2023-07-16T03:16:45;17.60;99.90
56428;DHT22;42331;53.578;9.760;2023-07-16T03:19:16;17.60;99.90
56428;DHT22;42331;53.578;9.760;2023-07-16T03:21:46;17.60;99.90
56428;DHT22;42331;53.578;9.760;2023-07-16T03:24:19;17.60;99.90
56428;DHT22;42331;53.578;9.760;2023-07-16T03:26:50;17.60;99.90
56428;DHT22;42331;53.578;9.760;2023-07-16T03:29:20;17.60;99.90
56428;DHT22;42331;53.578;9.760;2023-07-16T03:31:51;17.50;99.90
56428;DHT22;42331;53.578;9.760;2023-07-16T03:34:22;17.50;99.90
56428;DHT22;42331;53.578;9.760;2023-07-16T03:36:54;17.50;99.90
56428;DHT22;42331;53.578;9.760;2023-07-16T03:39:25;17.50;99.90
56428;DHT22;42331;53.578;9.760;2023-07-16T03:41:55;17.50;99.90
56428;DHT22;42331;53.578;9.760;2023-07-16T03:44:26;17.50;99.90
56428;DHT22;42331;53.578;9.760;2023-07-16T03:46:57;17.50;99.90
56428;DHT22;42331;53.578;9.760;2023-07-16T03:49:27;17.50;99.90
56428;DHT22;42331;53.578;9.760;2023-07-16T03:51:58;17.50;99.90
56428;DHT22;42331;53.578;9.760;2023-07-16T03:54:29;17.40;99.90
56428;DHT22;42331;53.578;9.760;2023-07-16T03:56:59;17.40;99.90
56428;DHT22;42331;53.578;9.760;2023-07-16T03:59:30;17.50;99.90
56428;DHT22;42331;53.578;9.760;2023-07-16T04:02:01;17.50;99.90
56428;DHT22;42331;53.578;9.760;2023-07-16T04:04:31;17.50;99.90
56428;DHT22;42331;53.578;9.760;2023-07-16T04:07:02;17.50;99.90
56428;DHT22;42331;53.578;9.760;2023-07-16T04:09:33;17.50;99.90
56428;DHT22;42331;53.578;9.760;2023-07-16T04:12:07;17.60;99.90
56428;DHT22;42331;53.578;9.760;2023-07-16T04:14:38;17.60;99.90
56428;DHT22;42331;53.578;9.760;2023-07-16T04:17:08;17.60;99.90
56428;DHT22;42331;53.578;9.760;2023-07-16T04:19:39;17.70;99.90
56428;DHT22;42331;53.578;9.760;2023-07-16T04:22:10;17.70;99.90
56428;DHT22;42331;53.578;9.760;2023-07-16T04:24:41;17.70;99.90
56428;DHT22;42331;53.578;9.760;2023-07-16T04:27:12;17.80;99.90
56428;DHT22;42331;53.578;9.760;2023-07-16T04:29:42;17.80;99.90
56428;DHT22;42331;53.578;9.760;2023-07-16T04:32:13;17.70;99.90
56428;DHT22;42331;53.578;9.760;2023-07-16T04:34:44;17.70;99.90
56428;DHT22;42331;53.578;9.760;2023-07-16T04:37:14;17.60;99.90
56428;DHT22;42331;53.578;9.760;2023-07-16T04:39:45;17.60;99.90
56428;DHT22;42331;53.578;9.760;2023-07-16T04:42:16;17.60;99.90
56428;DHT22;42331;53.578;9.760;2023-07-16T04:44:47;17.60;99.90
56428;DHT22;42331;53.578;9.760;2023-07-16T04:47:18;17.60;99.90
56428;DHT22;42331;53.578;9.760;2023-07-16T04:49:48;17.60;99.90
56428;DHT22;42331;53.578;9.760;2023-07-16T04:52:19;17.60;99.90
56428;DHT22;42331;53.578;9.760;2023-07-16T04:54:49;17.60;99.90
56428;DHT22;42331;53.578;9.760;2023-07-16T04:57:20;17.70;99.90
56428;DHT22;42331;53.578;9.760;2023-07-16T04:59:51;17.70;99.90
56428;DHT22;42331;53.578;9.760;2023-07-16T05:02:22;17.80;99.90
56428;DHT22;42331;53.578;9.760;2023-07-16T05:04:53;17.80;99.90
56428;DHT22;42331;53.578;9.760;2023-07-16T05:07:23;17.90;99.90
56428;DHT22;42331;53.578;9.760;2023-07-16T05:09:54;17.90;99.90
56428;DHT22;42331;53.578;9.760;2023-07-16T05:12:25;18.00;99.90
56428;DHT22;42331;53.578;9.760;2023-07-16T05:14:55;18.00;99.90
56428;DHT22;42331;53.578;9.760;2023-07-16T05:17:26;18.10;99.90
56428;DHT22;42331;53.578;9.760;2023-07-16T05:19:57;18.10;99.90
56428;DHT22;42331;53.578;9.760;2023-07-16T05:22:27;18.00;99.90
56428;DHT22;42331;53.578;9.760;2023-07-16T05:24:58;18.10;99.90
56428;DHT22;42331;53.578;9.760;2023-07-16T05:27:29;18.10;99.90
56428;DHT22;42331;53.578;9.760;2023-07-16T05:29:59;18.10;99.90
56428;DHT22;42331;53.578;9.760;2023-07-16T05:32:30;18.20;99.90
56428;DHT22;42331;53.578;9.760;2023-07-16T05:35:01;18.30;99.90
56428;DHT22;42331;53.578;9.760;2023-07-16T05:37:31;18.30;99.90
56428;DHT22;42331;53.578;9.760;2023-07-16T05:40:03;18.30;99.90
56428;DHT22;42331;53.578;9.760;2023-07-16T05:42:34;18.30;99.90
56428;DHT22;42331;53.578;9.760;2023-07-16T05:45:05;18.40;99.90
56428;DHT22;42331;53.578;9.760;2023-07-16T05:47:36;18.50;99.90
56428;DHT22;42331;53.578;9.760;2023-07-16T05:50:07;18.60;99.90
56428;DHT22;42331;53.578;9.760;2023-07-16T05:52:38;18.60;99.90
56428;DHT22;42331;53.578;9.760;2023-07-16T05:55:08;18.70;99.90
56428;DHT22;42331;53.578;9.760;2023-07-16T05:57:39;18.70;99.90
56428;DHT22;42331;53.578;9.760;2023-07-16T06:00:10;18.80;99.90
56428;DHT22;42331;53.578;9.760;2023-07-16T06:02:42;18.80;99.90
56428;DHT22;42331;53.578;9.760;2023-07-16T06:05:13;18.90;99.90
56428;DHT22;42331;53.578;9.760;2023-07-16T06:07:44;18.90;99.90
56428;DHT22;42331;53.578;9.760;2023-07-16T06:10:14;19.00;99.90
56428;DHT22;42331;53.578;9.760;2023-07-16T06:12:45;19.10;99.90
56428;DHT22;42331;53.578;9.760;2023-07-16T06:15:16;19.10;99.90
56428;DHT22;42331;53.578;9.760;2023-07-16T06:17:46;19.10;99.90
56428;DHT22;42331;53.578;9.760;2023-07-16T06:20:17;19.20;99.90
56428;DHT22;42331;53.578;9.760;2023-07-16T06:22:48;19.20;99.90
56428;DHT22;42331;53.578;9.760;2023-07-16T06:25:18;19.30;99.90
56428;DHT22;42331;53.578;9.760;2023-07-16T06:27:49;19.30;99.90
56428;DHT22;42331;53.578;9.760;2023-07-16T06:30:20;19.30;99.90
56428;DHT22;42331;53.578;9.760;2023-07-16T06:32:51;19.40;99.90
56428;DHT22;42331;53.578;9.760;2023-07-16T06:35:21;19.50;99.90
56428;DHT22;42331;53.578;9.760;2023-07-16T06:37:52;19.50;99.90
56428;DHT22;42331;53.578;9.760;2023-07-16T06:40:24;19.60;99.90
56428;DHT22;42331;53.578;9.760;2023-07-16T06:42:54;19.60;99.90
56428;DHT22;42331;53.578;9.760;2023-07-16T06:45:25;19.60;99.90
56428;DHT22;42331;53.578;9.760;2023-07-16T06:47:56;19.70;99.90
56428;DHT22;42331;53.578;9.760;2023-07-16T06:50:26;19.80;99.90
56428;DHT22;42331;53.578;9.760;2023-07-16T06:52:57;19.90;99.90
56428;DHT22;42331;53.578;9.760;2023-07-16T06:55:28;20.00;99.90
56428;DHT22;42331;53.578;9.760;2023-07-16T06:58:00;20.00;99.90
56428;DHT22;42331;53.578;9.760;2023-07-16T07:00:31;20.10;99.90
56428;DHT22;42331;53.578;9.760;2023-07-16T07:03:01;20.20;99.90
56428;DHT22;42331;53.578;9.760;2023-07-16T07:05:32;20.20;99.90
56428;DHT22;42331;53.578;9.760;2023-07-16T07:08:03;20.20;99.90
56428;DHT22;42331;53.578;9.760;2023-07-16T07:10:33;20.30;99.90
56428;DHT22;42331;53.578;9.760;2023-07-16T07:13:07;20.40;99.90
56428;DHT22;42331;53.578;9.760;2023-07-16T07:15:38;20.50;99.90
56428;DHT22;42331;53.578;9.760;2023-07-16T07:18:09;20.50;99.90
56428;DHT22;42331;53.578;9.760;2023-07-16T07:20:40;20.60;99.90
56428;DHT22;42331;53.578;9.760;2023-07-16T07:23:11;20.70;99.90
56428;DHT22;42331;53.578;9.760;2023-07-16T07:25:41;20.70;99.90
56428;DHT22;42331;53.578;9.760;2023-07-16T07:28:12;20.80;99.90
56428;DHT22;42331;53.578;9.760;2023-07-16T07:30:44;20.90;99.90
56428;DHT22;42331;53.578;9.760;2023-07-16T07:33:14;21.00;99.90
56428;DHT22;42331;53.578;9.760;2023-07-16T07:35:45;20.90;99.90
56428;DHT22;42331;53.578;9.760;2023-07-16T07:38:16;21.10;99.90
56428;DHT22;42331;53.578;9.760;2023-07-16T07:40:46;21.20;99.90
56428;DHT22;42331;53.578;9.760;2023-07-16T07:43:17;21.20;99.90
56428;DHT22;42331;53.578;9.760;2023-07-16T07:45:48;21.20;99.90
56428;DHT22;42331;53.578;9.760;2023-07-16T07:48:18;21.20;99.90
56428;DHT22;42331;53.578;9.760;2023-07-16T07:50:49;21.30;99.90
56428;DHT22;42331;53.578;9.760;2023-07-16T07:53:20;21.30;99.90
56428;DHT22;42331;53.578;9.760;2023-07-16T07:55:51;21.40;99.90
56428;DHT22;42331;53.578;9.760;2023-07-16T07:58:22;21.40;99.90
56428;DHT22;42331;53.578;9.760;2023-07-16T08:00:53;21.40;99.90
56428;DHT22;42331;53.578;9.760;2023-07-16T08:03:23;21.30;99.90
56428;DHT22;42331;53.578;9.760;2023-07-16T08:05:54;21.30;99.90
56428;DHT22;42331;53.578;9.760;2023-07-16T08:08:25;21.60;99.90
56428;DHT22;42331;53.578;9.760;2023-07-16T08:10:56;21.70;99.90
56428;DHT22;42331;53.578;9.760;2023-07-16T08:13:27;21.70;99.90
56428;DHT22;42331;53.578;9.760;2023-07-16T08:15:58;21.70;99.90
56428;DHT22;42331;53.578;9.760;2023-07-16T08:18:28;21.80;99.90
56428;DHT22;42331;53.578;9.760;2023-07-16T08:20:59;21.80;99.90
56428;DHT22;42331;53.578;9.760;2023-07-16T08:23:30;21.80;99.90
56428;DHT22;42331;53.578;9.760;2023-07-16T08:26:01;21.90;99.90
56428;DHT22;42331;53.578;9.760;2023-07-16T08:28:31;22.00;99.90
56428;DHT22;42331;53.578;9.760;2023-07-16T08:31:02;21.80;99.90
56428;DHT22;42331;53.578;9.760;2023-07-16T08:33:33;21.70;99.90
56428;DHT22;42331;53.578;9.760;2023-07-16T08:36:03;21.50;99.90
56428;DHT22;42331;53.578;9.760;2023-07-16T08:38:34;21.20;99.90
56428;DHT22;42331;53.578;9.760;2023-07-16T08:41:05;20.90;99.90
56428;DHT22;42331;53.578;9.760;2023-07-16T08:43:35;20.30;99.90
56428;DHT22;42331;53.578;9.760;2023-07-16T08:46:06;19.50;99.90
56428;DHT22;42331;53.578;9.760;2023-07-16T08:48:37;19.00;99.90
56428;DHT22;42331;53.578;9.760;2023-07-16T08:51:09;18.90;99.90
56428;DHT22;42331;53.578;9.760;2023-07-16T08:53:40;18.90;99.90
56428;DHT22;42331;53.578;9.760;2023-07-16T08:56:10;18.90;99.90
56428;DHT22;42331;53.578;9.760;2023-07-16T08:58:42;18.90;99.90
56428;DHT22;42331;53.578;9.760;2023-07-16T09:01:13;19.20;99.90
56428;DHT22;42331;53.578;9.760;2023-07-16T09:03:45;19.60;99.90
56428;DHT22;42331;53.578;9.760;2023-07-16T09:06:17;19.90;99.90
56428;DHT22;42331;53.578;9.760;2023-07-16T09:08:48;20.30;99.90
56428;DHT22;42331;53.578;9.760;2023-07-16T09:11:19;20.40;99.90
56428;DHT22;42331;53.578;9.760;2023-07-16T09:13:52;20.60;99.90
56428;DHT22;42331;53.578;9.760;2023-07-16T09:16:22;20.80;99.90
56428;DHT22;42331;53.578;9.760;2023-07-16T09:18:53;21.10;99.90
56428;DHT22;42331;53.578;9.760;2023-07-16T09:21:24;21.30;99.90
56428;DHT22;42331;53.578;9.760;2023-07-16T09:23:56;21.40;99.90
56428;DHT22;42331;53.578;9.760;2023-07-16T09:26:27;21.50;99.90
56428;DHT22;42331;53.578;9.760;2023-07-16T09:28:57;21.40;99.90
56428;DHT22;42331;53.578;9.760;2023-07-16T09:31:28;21.30;99.90
56428;DHT22;42331;53.578;9.760;2023-07-16T09:34:02;21.50;99.90
56428;DHT22;42331;53.578;9.760;2023-07-16T09:36:34;21.80;99.90
56428;DHT22;42331;53.578;9.760;2023-07-16T09:39:04;21.90;99.90
56428;DHT22;42331;53.578;9.760;2023-07-16T09:41:35;22.20;99.90
56428;DHT22;42331;53.578;9.760;2023-07-16T09:44:06;22.30;99.90
56428;DHT22;42331;53.578;9.760;2023-07-16T09:46:37;22.40;99.90
56428;DHT22;42331;53.578;9.760;2023-07-16T09:49:09;22.00;99.90
56428;DHT22;42331;53.578;9.760;2023-07-16T09:51:42;21.60;99.90
56428;DHT22;42331;53.578;9.760;2023-07-16T09:54:14;21.70;99.90
56428;DHT22;42331;53.578;9.760;2023-07-16T09:57:01;21.80;99.90
56428;DHT22;42331;53.578;9.760;2023-07-16T09:59:33;22.40;99.90
56428;DHT22;42331;53.578;9.760;2023-07-16T10:02:06;22.40;99.90
56428;DHT22;42331;53.578;9.760;2023-07-16T10:04:40;22.00;99.90
56428;DHT22;42331;53.578;9.760;2023-07-16T10:07:21;22.10;99.90
56428;DHT22;42331;53.578;9.760;2023-07-16T10:09:53;22.30;99.90
56428;DHT22;42331;53.578;9.760;2023-07-16T10:12:26;22.40;99.90
56428;DHT22;42331;53.578;9.760;2023-07-16T10:14:58;22.40;99.90
56428;DHT22;42331;53.578;9.760;2023-07-16T10:17:32;22.40;99.90
56428;DHT22;42331;53.578;9.760;2023-07-16T10:20:09;22.90;99.90
56428;DHT22;42331;53.578;9.760;2023-07-16T10:22:42;22.80;99.90
56428;DHT22;42331;53.578;9.760;2023-07-16T10:27:52;22.40;99.90
56428;DHT22;42331;53.578;9.760;2023-07-16T10:30:23;22.70;99.90
56428;DHT22;42331;53.578;9.760;2023-07-16T10:32:54;22.50;99.90
56428;DHT22;42331;53.578;9.760;2023-07-16T10:35:25;22.40;99.90
56428;DHT22;42331;53.578;9.760;2023-07-16T10:37:55;22.60;99.90
56428;DHT22;42331;53.578;9.760;2023-07-16T10:40:26;23.50;99.90
56428;DHT22;42331;53.578;9.760;2023-07-16T10:42:57;23.80;99.90
56428;DHT22;42331;53.578;9.760;2023-07-16T10:45:28;23.90;99.90
56428;DHT22;42331;53.578;9.760;2023-07-16T10:47:59;24.40;99.90
56428;DHT22;42331;53.578;9.760;2023-07-16T10:50:32;25.60;99.90
56428;DHT22;42331;53.578;9.760;2023-07-16T10:53:04;26.30;99.90
56428;DHT22;42331;53.578;9.760;2023-07-16T10:55:35;26.30;99.90
56428;DHT22;42331;53.578;9.760;2023-07-16T10:58:08;26.10;99.90
56428;DHT22;42331;53.578;9.760;2023-07-16T11:00:39;25.00;99.90
56428;DHT22;42331;53.578;9.760;2023-07-16T11:03:10;25.30;99.90
56428;DHT22;42331;53.578;9.760;2023-07-16T11:05:46;26.30;99.90
56428;DHT22;42331;53.578;9.760;2023-07-16T11:08:23;26.70;99.90
56428;DHT22;42331;53.578;9.760;2023-07-16T11:10:58;26.00;99.90
56428;DHT22;42331;53.578;9.760;2023-07-16T11:13:31;25.60;99.90
56428;DHT22;42331;53.578;9.760;2023-07-16T11:16:08;25.70;99.90
56428;DHT22;42331;53.578;9.760;2023-07-16T11:18:41;25.40;99.90
56428;DHT22;42331;53.578;9.760;2023-07-16T11:21:12;25.10;99.90
56428;DHT22;42331;53.578;9.760;2023-07-16T11:23:43;25.60;99.90
56428;DHT22;42331;53.578;9.760;2023-07-16T11:26:15;24.90;99.90
56428;DHT22;42331;53.578;9.760;2023-07-16T11:28:50;24.10;99.90
56428;DHT22;42331;53.578;9.760;2023-07-16T11:31:21;23.60;99.90
56428;DHT22;42331;53.578;9.760;2023-07-16T11:34:00;23.40;99.90
56428;DHT22;42331;53.578;9.760;2023-07-16T11:36:34;23.00;99.90
56428;DHT22;42331;53.578;9.760;2023-07-16T11:39:04;22.80;99.90
56428;DHT22;42331;53.578;9.760;2023-07-16T11:41:35;23.20;99.90
56428;DHT22;42331;53.578;9.760;2023-07-16T11:44:07;23.00;99.90
56428;DHT22;42331;53.578;9.760;2023-07-16T11:46:39;23.30;99.90
56428;DHT22;42331;53.578;9.760;2023-07-16T11:49:10;23.20;99.90
56428;DHT22;42331;53.578;9.760;2023-07-16T11:51:41;23.20;99.90
56428;DHT22;42331;53.578;9.760;2023-07-16T11:54:13;22.80;99.90
56428;DHT22;42331;53.578;9.760;2023-07-16T11:56:44;22.70;99.90
56428;DHT22;42331;53.578;9.760;2023-07-16T11:59:17;22.60;99.90
56428;DHT22;42331;53.578;9.760;2023-07-16T12:01:51;22.70;99.90
56428;DHT22;42331;53.578;9.760;2023-07-16T12:04:23;22.80;99.90
56428;DHT22;42331;53.578;9.760;2023-07-16T12:06:54;23.00;99.90
56428;DHT22;42331;53.578;9.760;2023-07-16T12:09:27;22.90;99.90
56428;DHT22;42331;53.578;9.760;2023-07-16T12:11:58;23.00;99.90
56428;DHT22;42331;53.578;9.760;2023-07-16T12:14:35;22.90;99.90
56428;DHT22;42331;53.578;9.760;2023-07-16T12:17:07;23.00;99.90
56428;DHT22;42331;53.578;9.760;2023-07-16T12:19:42;23.20;99.90
56428;DHT22;42331;53.578;9.760;2023-07-16T12:22:16;23.40;99.90
56428;DHT22;42331;53.578;9.760;2023-07-16T12:24:50;23.50;99.90
56428;DHT22;42331;53.578;9.760;2023-07-16T12:27:21;23.40;99.90
56428;DHT22;42331;53.578;9.760;2023-07-16T12:29:52;23.60;99.90
56428;DHT22;42331;53.578;9.760;2023-07-16T12:32:23;23.60;99.90
56428;DHT22;42331;53.578;9.760;2023-07-16T12:34:54;23.80;99.90
56428;DHT22;42331;53.578;9.760;2023-07-16T12:37:27;23.90;99.90
56428;DHT22;42331;53.578;9.760;2023-07-16T12:39:58;23.50;99.90
56428;DHT22;42331;53.578;9.760;2023-07-16T12:42:29;23.40;99.90
56428;DHT22;42331;53.578;9.760;2023-07-16T12:45:03;23.50;99.90
56428;DHT22;42331;53.578;9.760;2023-07-16T12:47:34;23.40;99.90
56428;DHT22;42331;53.578;9.760;2023-07-16T12:50:17;23.30;99.90
56428;DHT22;42331;53.578;9.760;2023-07-16T12:52:53;23.40;99.90
56428;DHT22;42331;53.578;9.760;2023-07-16T12:55:24;23.40;99.90
56428;DHT22;42331;53.578;9.760;2023-07-16T12:57:55;23.20;99.90
56428;DHT22;42331;53.578;9.760;2023-07-16T13:00:26;23.10;99.90
56428;DHT22;42331;53.578;9.760;2023-07-16T13:03:16;23.00;99.90
56428;DHT22;42331;53.578;9.760;2023-07-16T13:05:55;23.10;99.90
56428;DHT22;42331;53.578;9.760;2023-07-16T13:08:34;23.00;99.90
56428;DHT22;42331;53.578;9.760;2023-07-16T13:11:05;23.00;99.90
56428;DHT22;42331;53.578;9.760;2023-07-16T13:13:36;22.90;99.90
56428;DHT22;42331;53.578;9.760;2023-07-16T13:16:07;22.70;99.90
56428;DHT22;42331;53.578;9.760;2023-07-16T13:18:38;22.40;99.90
56428;DHT22;42331;53.578;9.760;2023-07-16T13:21:08;22.20;99.90
56428;DHT22;42331;53.578;9.760;2023-07-16T13:23:39;21.90;99.90
56428;DHT22;42331;53.578;9.760;2023-07-16T13:26:10;21.90;99.90
56428;DHT22;42331;53.578;9.760;2023-07-16T13:28:40;22.10;99.90
56428;DHT22;42331;53.578;9.760;2023-07-16T13:31:11;22.40;99.90
56428;DHT22;42331;53.578;9.760;2023-07-16T13:33:42;22.60;99.90
56428;DHT22;42331;53.578;9.760;2023-07-16T13:36:12;22.60;99.90
56428;DHT22;42331;53.578;9.760;2023-07-16T13:38:43;22.50;99.90
56428;DHT22;42331;53.578;9.760;2023-07-16T13:41:14;22.60;99.90
56428;DHT22;42331;53.578;9.760;2023-07-16T13:43:44;22.70;99.90
56428;DHT22;42331;53.578;9.760;2023-07-16T13:46:15;22.60;99.90
56428;DHT22;42331;53.578;9.760;2023-07-16T13:48:46;22.80;99.90
56428;DHT22;42331;53.578;9.760;2023-07-16T13:51:17;22.70;99.90
56428;DHT22;42331;53.578;9.760;2023-07-16T13:53:47;22.70;99.90
56428;DHT22;42331;53.578;9.760;2023-07-16T13:56:18;22.70;99.90
56428;DHT22;42331;53.578;9.760;2023-07-16T13:58:49;22.40;99.90
56428;DHT22;42331;53.578;9.760;2023-07-16T14:01:22;22.50;99.90
56428;DHT22;42331;53.578;9.760;2023-07-16T14:03:53;22.40;99.90
56428;DHT22;42331;53.578;9.760;2023-07-16T14:06:24;22.50;99.90
56428;DHT22;42331;53.578;9.760;2023-07-16T14:08:55;22.50;99.90
56428;DHT22;42331;53.578;9.760;2023-07-16T14:11:25;22.30;99.90
56428;DHT22;42331;53.578;9.760;2023-07-16T14:13:56;22.20;99.90
56428;DHT22;42331;53.578;9.760;2023-07-16T14:16:27;22.30;99.90
56428;DHT22;42331;53.578;9.760;2023-07-16T14:18:58;22.40;99.90
56428;DHT22;42331;53.578;9.760;2023-07-16T14:21:28;22.40;99.90
56428;DHT22;42331;53.578;9.760;2023-07-16T14:24:00;22.40;99.90
56428;DHT22;42331;53.578;9.760;2023-07-16T14:26:31;22.50;99.90
56428;DHT22;42331;53.578;9.760;2023-07-16T14:29:01;22.60;99.90
56428;DHT22;42331;53.578;9.760;2023-07-16T14:31:32;22.70;99.90
56428;DHT22;42331;53.578;9.760;2023-07-16T14:34:03;22.90;99.90
56428;DHT22;42331;53.578;9.760;2023-07-16T14:36:34;22.80;99.90
56428;DHT22;42331;53.578;9.760;2023-07-16T14:39:05;22.90;99.90
56428;DHT22;42331;53.578;9.760;2023-07-16T14:41:36;22.90;99.90
56428;DHT22;42331;53.578;9.760;2023-07-16T14:44:06;22.90;99.90
56428;DHT22;42331;53.578;9.760;2023-07-16T14:46:37;23.00;99.90
56428;DHT22;42331;53.578;9.760;2023-07-16T14:49:08;22.90;99.90
56428;DHT22;42331;53.578;9.760;2023-07-16T14:51:39;22.70;99.90
56428;DHT22;42331;53.578;9.760;2023-07-16T14:54:15;22.70;99.90
56428;DHT22;42331;53.578;9.760;2023-07-16T14:56:46;22.80;99.90
56428;DHT22;42331;53.578;9.760;2023-07-16T14:59:17;22.80;99.90
56428;DHT22;42331;53.578;9.760;2023-07-16T15:01:48;22.60;99.90
56428;DHT22;42331;53.578;9.760;2023-07-16T15:04:18;22.60;99.90
56428;DHT22;42331;53.578;9.760;2023-07-16T15:06:49;22.50;99.90
56428;DHT22;42331;53.578;9.760;2023-07-16T15:09:21;22.50;99.90
56428;DHT22;42331;53.578;9.760;2023-07-16T15:11:53;22.60;99.90
56428;DHT22;42331;53.578;9.760;2023-07-16T15:14:23;22.70;99.90
56428;DHT22;42331;53.578;9.760;2023-07-16T15:16:54;22.80;99.90
56428;DHT22;42331;53.578;9.760;2023-07-16T15:19:25;22.90;99.90
56428;DHT22;42331;53.578;9.760;2023-07-16T15:21:56;22.90;99.90
56428;DHT22;42331;53.578;9.760;2023-07-16T15:24:27;22.90;99.90
56428;DHT22;42331;53.578;9.760;2023-07-16T15:26:58;22.90;99.90
56428;DHT22;42331;53.578;9.760;2023-07-16T15:29:28;22.90;99.90
56428;DHT22;42331;53.578;9.760;2023-07-16T15:32:02;23.00;99.90
56428;DHT22;42331;53.578;9.760;2023-07-16T15:34:33;22.90;99.90
56428;DHT22;42331;53.578;9.760;2023-07-16T15:37:04;22.70;99.90
56428;DHT22;42331;53.578;9.760;2023-07-16T15:39:35;22.50;99.90
56428;DHT22;42331;53.578;9.760;2023-07-16T15:42:06;22.30;99.90
56428;DHT22;42331;53.578;9.760;2023-07-16T15:44:37;22.40;99.90
56428;DHT22;42331;53.578;9.760;2023-07-16T15:47:10;22.40;99.90
56428;DHT22;42331;53.578;9.760;2023-07-16T15:49:40;22.30;99.90
56428;DHT22;42331;53.578;9.760;2023-07-16T15:52:43;22.30;99.90
56428;DHT22;42331;53.578;9.760;2023-07-16T15:55:43;22.30;99.90
56428;DHT22;42331;53.578;9.760;2023-07-16T15:58:26;22.20;99.90
56428;DHT22;42331;53.578;9.760;2023-07-16T16:00:57;22.10;99.90
56428;DHT22;42331;53.578;9.760;2023-07-16T16:03:35;22.20;99.90
56428;DHT22;42331;53.578;9.760;2023-07-16T16:06:06;22.20;99.90
56428;DHT22;42331;53.578;9.760;2023-07-16T16:08:39;22.30;99.90
56428;DHT22;42331;53.578;9.760;2023-07-16T16:11:10;22.30;99.90